createdAt,value
2018-12-04T00:01:11.447Z,14.60
2018-12-04T00:03:39.231Z,13.63
2018-12-04T00:06:07.068Z,15.10
2018-12-04T00:08:34.820Z,17.33
2018-12-04T00:11:02.595Z,18.53
2018-12-04T00:13:30.466Z,15.60
2018-12-04T00:15:58.281Z,10.87
2018-12-04T00:18:26.131Z,15.43
2018-12-04T00:20:53.896Z,15.57
2018-12-04T00:23:21.689Z,8.00
2018-12-04T00:25:49.465Z,10.63
2018-12-04T00:28:17.236Z,14.33
2018-12-04T00:30:45.072Z,11.23
2018-12-04T00:33:12.872Z,11.57
2018-12-04T00:35:40.702Z,14.07
2018-12-04T00:38:08.502Z,12.50
2018-12-04T00:40:36.291Z,14.60
2018-12-04T00:43:04.117Z,8.63
2018-12-04T00:45:32.007Z,13.43
2018-12-04T00:47:59.793Z,13.63
2018-12-04T00:50:27.617Z,15.73
2018-12-04T00:52:55.437Z,11.10
2018-12-04T00:55:23.325Z,12.80
2018-12-04T00:57:51.122Z,12.43
2018-12-04T01:00:18.945Z,21.33
2018-12-04T01:02:46.798Z,11.47
2018-12-04T01:05:15.292Z,12.00
2018-12-04T01:07:43.067Z,11.13
2018-12-04T01:10:10.861Z,11.40
2018-12-04T01:12:38.751Z,15.33
2018-12-04T01:15:07.156Z,9.30
2018-12-04T01:17:34.938Z,12.67
2018-12-04T01:20:02.877Z,13.77
2018-12-04T01:22:31.178Z,10.00
2018-12-04T01:24:59.017Z,9.13
2018-12-04T01:27:26.838Z,10.77
2018-12-04T01:29:54.648Z,7.87
2018-12-04T01:32:22.455Z,11.23
2018-12-04T01:34:50.289Z,12.23
2018-12-04T01:37:18.242Z,11.87
2018-12-04T01:39:46.150Z,9.80
2018-12-04T01:42:14.032Z,6.77
2018-12-04T01:44:41.863Z,6.10
2018-12-04T01:47:09.680Z,9.07
2018-12-04T01:49:37.628Z,4.93
2018-12-04T01:52:05.467Z,8.33
2018-12-04T01:54:33.314Z,12.77
2018-12-04T01:57:01.161Z,7.53
2018-12-04T01:59:28.972Z,13.27
2018-12-04T02:01:56.853Z,12.13
2018-12-04T02:04:24.689Z,8.20
2018-12-04T02:06:52.505Z,9.10
2018-12-04T02:09:20.304Z,9.57
2018-12-04T02:11:48.126Z,11.60
2018-12-04T02:14:15.893Z,13.00
2018-12-04T02:16:43.985Z,13.83
2018-12-04T02:19:11.785Z,13.43
2018-12-04T02:21:39.523Z,14.93
2018-12-04T02:24:07.313Z,10.70
2018-12-04T02:26:35.169Z,9.43
2018-12-04T02:29:02.971Z,8.10
2018-12-04T02:31:30.747Z,4.87
2018-12-04T02:33:58.535Z,7.73
2018-12-04T02:36:26.293Z,5.47
2018-12-04T02:38:54.036Z,6.80
2018-12-04T02:41:21.823Z,5.10
2018-12-04T02:43:49.625Z,7.83
2018-12-04T02:46:17.427Z,7.17
2018-12-04T02:48:45.161Z,9.13
2018-12-04T02:51:12.937Z,10.60
2018-12-04T02:53:40.735Z,10.97
2018-12-04T02:56:08.507Z,12.40
2018-12-04T02:58:36.255Z,12.50
2018-12-04T03:01:04.044Z,7.63
2018-12-04T03:03:31.814Z,9.47
2018-12-04T03:05:59.669Z,6.37
2018-12-04T03:08:27.437Z,6.80
2018-12-04T03:10:55.252Z,8.77
2018-12-04T03:13:23.025Z,5.67
2018-12-04T03:15:50.845Z,9.43
2018-12-04T03:18:18.628Z,9.97
2018-12-04T03:20:46.401Z,8.33
2018-12-04T03:23:14.204Z,4.77
2018-12-04T03:25:41.959Z,8.53
2018-12-04T03:28:09.746Z,7.47
2018-12-04T03:30:37.648Z,9.33
2018-12-04T03:33:05.514Z,5.83
2018-12-04T03:35:33.334Z,5.43
2018-12-04T03:46:39.299Z,8.57
2018-12-04T03:49:37.073Z,5.97
2018-12-04T03:52:04.820Z,11.07
2018-12-04T03:54:32.593Z,11.13
2018-12-04T03:57:00.323Z,14.63
2018-12-04T03:59:28.106Z,13.23
2018-12-04T04:01:55.893Z,13.83
2018-12-04T04:04:23.749Z,8.37
2018-12-04T04:06:51.521Z,10.97
2018-12-04T04:09:19.256Z,10.47
2018-12-04T04:11:47.152Z,13.43
2018-12-04T04:14:14.984Z,10.60
2018-12-04T04:16:42.810Z,10.53
2018-12-04T04:19:10.661Z,9.30
2018-12-04T04:21:38.470Z,9.70
2018-12-04T04:24:06.286Z,8.80
2018-12-04T04:26:34.067Z,11.50
2018-12-04T04:29:01.825Z,14.57
2018-12-04T04:31:29.596Z,12.97
2018-12-04T04:33:57.329Z,12.77
2018-12-04T04:36:25.167Z,13.10
2018-12-04T04:38:52.920Z,9.90
2018-12-04T04:41:20.733Z,14.47
2018-12-04T04:43:48.556Z,10.80
2018-12-04T04:46:16.370Z,13.07
2018-12-04T04:48:44.094Z,11.10
2018-12-04T04:51:11.880Z,18.53
2018-12-04T04:53:39.708Z,14.40
2018-12-04T04:56:07.453Z,14.57
2018-12-04T04:58:35.298Z,12.43
2018-12-04T05:01:03.094Z,12.30
2018-12-04T05:03:30.924Z,9.93
2018-12-04T05:05:58.688Z,12.17
2018-12-04T05:08:26.427Z,8.10
2018-12-04T05:10:54.168Z,10.47
2018-12-04T05:13:21.970Z,7.93
2018-12-04T05:15:49.749Z,10.97
2018-12-04T05:18:17.486Z,15.97
2018-12-04T05:20:45.274Z,7.10
2018-12-04T05:23:13.017Z,11.07
2018-12-04T05:25:40.796Z,8.40
2018-12-04T05:28:08.545Z,6.80
2018-12-04T05:30:36.272Z,5.20
2018-12-04T05:33:04.009Z,5.63
2018-12-04T05:35:31.759Z,4.37
2018-12-04T05:37:59.455Z,5.30
2018-12-04T05:40:27.193Z,7.87
2018-12-04T05:42:54.978Z,3.53
2018-12-04T05:45:22.731Z,10.27
2018-12-04T05:47:50.514Z,8.33
2018-12-04T05:50:18.277Z,10.07
2018-12-04T05:52:56.078Z,15.37
2018-12-04T05:55:23.780Z,10.13
2018-12-04T05:57:51.553Z,11.83
2018-12-04T06:00:19.357Z,12.27
2018-12-04T06:02:47.065Z,7.33
2018-12-04T06:05:14.859Z,12.37
2018-12-04T06:07:42.568Z,11.57
2018-12-04T06:10:10.373Z,10.30
2018-12-04T06:12:38.760Z,12.03
2018-12-04T06:15:06.613Z,12.43
2018-12-04T06:17:34.372Z,9.87
2018-12-04T06:20:02.153Z,9.20
2018-12-04T06:22:29.878Z,9.23
2018-12-04T06:24:57.676Z,5.60
2018-12-04T06:27:25.401Z,10.03
2018-12-04T06:29:53.228Z,7.33
2018-12-04T06:32:21.010Z,7.60
2018-12-04T06:34:48.788Z,7.63
2018-12-04T06:37:16.560Z,6.60
2018-12-04T06:39:44.301Z,9.30
2018-12-04T06:42:12.034Z,7.60
2018-12-04T06:44:39.838Z,10.03
2018-12-04T06:47:07.570Z,12.50
2018-12-04T06:49:35.331Z,10.93
2018-12-04T06:52:03.128Z,10.20
2018-12-04T06:54:30.905Z,10.97
2018-12-04T06:56:58.655Z,14.27
2018-12-04T06:59:26.618Z,11.47
2018-12-04T07:01:54.401Z,14.77
2018-12-04T07:04:22.961Z,11.47
2018-12-04T07:06:50.720Z,15.43
2018-12-04T07:09:18.456Z,13.77
2018-12-04T07:11:46.255Z,23.10
2018-12-04T07:14:14.007Z,10.93
2018-12-04T07:16:41.786Z,13.27
2018-12-04T07:19:09.517Z,14.50
2018-12-04T07:21:37.432Z,10.50
2018-12-04T07:24:05.197Z,11.80
2018-12-04T07:26:32.949Z,13.17
2018-12-04T07:29:00.744Z,11.57
2018-12-04T07:31:28.555Z,9.40
2018-12-04T07:33:56.341Z,8.50
2018-12-04T07:36:24.129Z,5.87
2018-12-04T07:38:51.873Z,7.73
2018-12-04T07:41:19.773Z,8.27
2018-12-04T07:43:47.515Z,16.93
2018-12-04T07:46:15.330Z,13.13
2018-12-04T07:48:43.125Z,10.30
2018-12-04T07:51:11.069Z,11.73
2018-12-04T07:53:38.962Z,18.40
2018-12-04T07:56:06.801Z,14.93
2018-12-04T07:58:34.559Z,11.00
2018-12-04T08:01:02.333Z,7.80
2018-12-04T08:03:30.194Z,11.20
2018-12-04T08:06:00.039Z,11.10
2018-12-04T08:08:27.797Z,9.43
2018-12-04T08:10:55.572Z,5.23
2018-12-04T08:13:23.297Z,7.20
2018-12-04T08:15:51.024Z,9.63
2018-12-04T08:18:18.777Z,6.93
2018-12-04T08:20:46.533Z,7.33
2018-12-04T08:23:14.281Z,8.10
2018-12-04T08:25:42.000Z,7.07
2018-12-04T08:28:09.720Z,6.37
2018-12-04T08:30:37.472Z,7.43
2018-12-04T08:33:05.283Z,6.13
2018-12-04T08:35:33.063Z,7.90
2018-12-04T08:38:00.925Z,6.10
2018-12-04T08:40:28.731Z,6.53
2018-12-04T08:42:56.477Z,7.50
2018-12-04T08:45:24.224Z,7.43
2018-12-04T08:47:51.952Z,6.23
2018-12-04T08:50:19.827Z,7.33
2018-12-04T08:52:47.575Z,11.30
2018-12-04T08:55:15.341Z,4.33
2018-12-04T08:57:43.137Z,4.43
2018-12-04T09:00:10.951Z,6.87
2018-12-04T09:02:38.789Z,8.33
2018-12-04T09:05:07.569Z,8.07
2018-12-04T09:07:35.309Z,12.57
2018-12-04T09:10:03.566Z,9.23
2018-12-04T09:12:31.297Z,6.53
2018-12-04T09:14:59.048Z,8.90
2018-12-04T09:17:26.784Z,8.80
2018-12-04T09:19:54.537Z,8.00
2018-12-04T09:22:22.421Z,8.00
2018-12-04T09:24:50.265Z,10.10
2018-12-04T09:27:18.125Z,8.37
2018-12-04T09:29:45.972Z,7.80
2018-12-04T09:32:13.857Z,8.50
2018-12-04T09:34:41.663Z,8.97
2018-12-04T09:37:09.422Z,10.43
2018-12-04T09:39:37.229Z,9.00
2018-12-04T09:42:05.245Z,9.37
2018-12-04T09:44:33.016Z,10.47
2018-12-04T09:47:00.934Z,9.60
2018-12-04T09:49:28.695Z,8.33
2018-12-04T09:51:56.501Z,8.47
2018-12-04T09:54:24.327Z,8.30
2018-12-04T09:56:52.569Z,6.60
2018-12-04T09:59:20.340Z,11.40
2018-12-04T10:01:48.242Z,14.03
2018-12-04T10:04:16.049Z,9.00
2018-12-04T10:06:43.806Z,9.73
2018-12-04T10:09:11.634Z,15.17
2018-12-04T10:11:39.439Z,12.40
2018-12-04T10:14:07.378Z,11.53
2018-12-04T10:16:35.129Z,11.00
2018-12-04T10:19:02.934Z,12.60
2018-12-04T10:21:30.684Z,10.10
2018-12-04T10:23:58.459Z,9.23
2018-12-04T10:26:26.280Z,21.37
2018-12-04T10:28:54.037Z,13.77
2018-12-04T10:31:21.833Z,11.70
2018-12-04T10:33:49.567Z,10.73
2018-12-04T10:36:17.352Z,10.50
2018-12-04T10:38:45.208Z,11.20
2018-12-04T10:41:13.906Z,14.67
2018-12-04T10:43:41.695Z,14.03
2018-12-04T10:46:09.474Z,12.30
2018-12-04T10:48:37.265Z,10.40
2018-12-04T10:51:05.036Z,11.03
2018-12-04T10:53:32.830Z,14.57
2018-12-04T10:56:00.604Z,12.13
2018-12-04T10:58:28.470Z,14.17
2018-12-04T11:00:58.221Z,15.57
2018-12-04T11:03:31.750Z,13.37
2018-12-04T11:05:59.537Z,11.70
2018-12-04T11:08:27.258Z,10.77
2018-12-04T11:10:55.068Z,12.93
2018-12-04T11:13:22.852Z,12.77
2018-12-04T11:15:50.696Z,12.37
2018-12-04T11:18:18.529Z,12.97
2018-12-04T11:20:46.259Z,13.23
2018-12-04T11:23:14.022Z,11.53
2018-12-04T11:25:41.799Z,18.07
2018-12-04T11:28:09.548Z,11.20
2018-12-04T11:30:37.374Z,9.17
2018-12-04T11:33:05.313Z,13.83
2018-12-04T11:35:33.126Z,10.53
2018-12-04T11:38:01.102Z,11.03
2018-12-04T11:40:29.004Z,11.43
2018-12-04T11:42:56.781Z,13.60
2018-12-04T11:45:24.520Z,5.67
2018-12-04T11:47:52.327Z,10.50
2018-12-04T11:50:20.144Z,9.20
2018-12-04T11:52:48.142Z,12.43
2018-12-04T11:55:16.070Z,10.73
2018-12-04T11:57:43.873Z,11.67
2018-12-04T12:00:19.999Z,11.07
2018-12-04T12:02:47.756Z,10.77
2018-12-04T12:05:15.643Z,12.13
2018-12-04T12:07:43.436Z,10.20
2018-12-04T12:10:11.201Z,6.17
2018-12-04T12:12:39.096Z,7.03
2018-12-04T12:15:07.006Z,10.13
2018-12-04T12:17:34.773Z,9.70
2018-12-04T12:20:03.167Z,7.83
2018-12-04T12:22:30.956Z,7.63
2018-12-04T12:25:04.348Z,11.67
2018-12-04T12:27:32.116Z,7.53
2018-12-04T12:30:00.064Z,8.67
2018-12-04T12:32:28.972Z,10.27
2018-12-04T12:34:56.699Z,9.10
2018-12-04T12:37:24.624Z,9.80
2018-12-04T12:39:52.398Z,9.47
2018-12-04T12:42:20.419Z,10.53
2018-12-04T12:44:48.262Z,13.57
2018-12-04T12:47:16.096Z,8.83
2018-12-04T12:49:43.861Z,11.20
2018-12-04T12:52:11.819Z,15.43
2018-12-04T12:54:41.609Z,11.83
2018-12-04T12:57:09.371Z,14.67
2018-12-04T12:59:37.165Z,15.27
2018-12-04T13:02:04.920Z,14.20
2018-12-04T13:04:34.055Z,14.53
2018-12-04T13:07:01.834Z,12.20
2018-12-04T13:09:30.181Z,13.13
2018-12-04T13:11:57.996Z,11.47
2018-12-04T13:14:25.752Z,10.30
2018-12-04T13:16:53.513Z,13.37
2018-12-04T13:19:21.411Z,12.43
2018-12-04T13:21:49.230Z,12.30
2018-12-04T13:24:16.977Z,9.77
2018-12-04T13:26:44.820Z,9.17
2018-12-04T13:29:12.606Z,14.03
2018-12-04T13:31:40.402Z,8.00
2018-12-04T13:34:08.151Z,15.47
2018-12-04T13:36:35.937Z,9.50
2018-12-04T13:39:06.896Z,7.97
2018-12-04T13:41:35.199Z,10.37
2018-12-04T13:44:03.078Z,9.30
2018-12-04T13:46:30.863Z,7.77
2018-12-04T13:48:58.611Z,7.30
2018-12-04T13:51:26.390Z,9.63
2018-12-04T13:53:54.168Z,7.93
2018-12-04T13:56:21.931Z,7.67
2018-12-04T13:58:49.698Z,8.27
2018-12-04T14:01:17.500Z,6.27
2018-12-04T14:03:45.205Z,6.97
2018-12-04T14:06:12.923Z,9.37
2018-12-04T14:08:41.411Z,6.77
2018-12-04T14:11:09.137Z,7.70
2018-12-04T14:13:37.048Z,13.03
2018-12-04T14:16:04.891Z,7.60
2018-12-04T14:18:32.651Z,9.50
2018-12-04T14:21:00.405Z,11.20
2018-12-04T14:23:28.278Z,9.00
2018-12-04T14:25:56.039Z,10.13
2018-12-04T14:28:23.853Z,4.43
2018-12-04T14:30:51.591Z,7.43
2018-12-04T14:33:19.441Z,7.30
2018-12-04T14:35:47.144Z,8.10
2018-12-04T14:38:14.898Z,5.90
2018-12-04T14:40:42.720Z,7.60
2018-12-04T14:43:10.579Z,7.07
2018-12-04T14:45:38.371Z,12.37
2018-12-04T14:48:06.140Z,12.87
2018-12-04T14:50:34.307Z,18.77
2018-12-04T14:53:02.068Z,16.80
2018-12-04T14:55:30.195Z,11.03
2018-12-04T14:57:57.979Z,13.83
2018-12-04T15:00:25.961Z,10.23
2018-12-04T15:02:53.739Z,6.83
2018-12-04T15:05:21.577Z,5.53
2018-12-04T15:07:49.416Z,9.03
2018-12-04T15:10:17.241Z,8.73
2018-12-04T15:12:45.087Z,5.47
2018-12-04T15:15:12.863Z,7.23
2018-12-04T15:17:40.632Z,8.47
2018-12-04T15:20:08.792Z,7.50
2018-12-04T15:22:36.694Z,4.57
2018-12-04T15:25:04.851Z,7.60
2018-12-04T15:27:32.733Z,7.37
2018-12-04T15:30:00.511Z,4.43
2018-12-04T15:32:28.359Z,5.37
2018-12-04T15:34:56.233Z,6.60
2018-12-04T15:37:24.182Z,6.07
2018-12-04T15:39:52.786Z,5.07
2018-12-04T15:42:20.758Z,6.77
2018-12-04T15:44:48.526Z,6.77
2018-12-04T15:47:16.297Z,3.63
2018-12-04T15:49:44.114Z,5.73
2018-12-04T15:52:11.883Z,5.10
2018-12-04T15:54:39.749Z,4.67
2018-12-04T15:57:07.587Z,13.07
2018-12-04T15:59:35.556Z,4.93
2018-12-04T16:02:03.456Z,8.10
2018-12-04T16:04:31.263Z,8.03
2018-12-04T16:06:59.029Z,7.47
2018-12-04T16:09:26.799Z,9.20
2018-12-04T16:11:54.530Z,7.63
2018-12-04T16:14:22.272Z,8.60
2018-12-04T16:16:50.031Z,9.90
2018-12-04T16:19:17.797Z,14.00
2018-12-04T16:21:45.524Z,7.47
2018-12-04T16:24:13.261Z,6.83
2018-12-04T16:26:41.911Z,7.87
2018-12-04T16:29:09.656Z,5.60
2018-12-04T16:31:37.416Z,7.57
2018-12-04T16:34:05.251Z,7.07
2018-12-04T16:36:32.977Z,7.90
2018-12-04T16:39:00.716Z,5.60
2018-12-04T16:41:28.463Z,4.83
2018-12-04T16:43:56.216Z,6.13
2018-12-04T16:46:23.977Z,4.63
2018-12-04T16:48:51.744Z,5.00
2018-12-04T16:51:19.515Z,3.87
2018-12-04T16:53:47.278Z,5.97
2018-12-04T16:56:15.018Z,4.83
2018-12-04T16:58:42.942Z,5.53
2018-12-04T17:01:10.765Z,6.40
2018-12-04T17:03:38.757Z,9.30
2018-12-04T17:06:06.546Z,4.47
2018-12-04T17:08:34.336Z,7.50
2018-12-04T17:11:02.068Z,6.33
2018-12-04T17:13:29.800Z,6.90
2018-12-04T17:15:57.838Z,4.20
2018-12-04T17:18:25.580Z,4.57
2018-12-04T17:20:53.341Z,4.60
2018-12-04T17:23:21.104Z,6.90
2018-12-04T17:25:48.940Z,5.83
2018-12-04T17:28:16.746Z,6.27
2018-12-04T17:30:44.500Z,9.67
2018-12-04T17:33:12.240Z,5.27
2018-12-04T17:35:40.064Z,8.03
2018-12-04T17:38:07.854Z,7.07
2018-12-04T17:40:35.624Z,4.87
2018-12-04T17:43:03.429Z,7.37
2018-12-04T17:45:31.159Z,9.20
2018-12-04T17:47:58.951Z,6.60
2018-12-04T17:50:26.751Z,6.07
2018-12-04T17:52:54.575Z,4.77
2018-12-04T17:55:22.480Z,4.43
2018-12-04T17:57:50.217Z,6.40
2018-12-04T18:00:18.150Z,6.47
2018-12-04T18:02:45.909Z,6.97
2018-12-04T18:05:13.669Z,3.97
2018-12-04T18:07:41.454Z,10.20
2018-12-04T18:10:09.259Z,11.37
2018-12-04T18:12:37.034Z,6.97
2018-12-04T18:15:05.945Z,3.47
2018-12-04T18:17:33.667Z,3.73
2018-12-04T18:20:01.461Z,3.67
2018-12-04T18:22:29.248Z,6.90
2018-12-04T18:24:57.014Z,7.30
2018-12-04T18:27:24.820Z,6.73
2018-12-04T18:29:52.571Z,4.17
2018-12-04T18:32:20.342Z,2.80
2018-12-04T18:34:48.133Z,5.40
2018-12-04T18:37:16.030Z,4.73
2018-12-04T18:39:44.021Z,4.23
2018-12-04T18:42:11.763Z,4.20
2018-12-04T18:44:39.518Z,4.60
2018-12-04T18:47:07.262Z,4.77
2018-12-04T18:49:35.240Z,6.53
2018-12-04T18:52:03.007Z,6.17
2018-12-04T18:54:30.792Z,2.93
2018-12-04T18:56:58.655Z,3.97
2018-12-04T18:59:26.385Z,8.47
2018-12-04T19:01:54.151Z,6.53
2018-12-04T19:04:21.926Z,4.93
2018-12-04T19:06:49.697Z,7.13
2018-12-04T19:09:17.412Z,5.13
2018-12-04T19:11:45.197Z,4.33
2018-12-04T19:14:13.088Z,6.27
2018-12-04T19:16:40.865Z,6.43
2018-12-04T19:19:08.760Z,4.47
2018-12-04T19:21:36.498Z,5.23
2018-12-04T19:24:04.281Z,5.97
2018-12-04T19:26:32.212Z,5.47
2018-12-04T19:29:00.033Z,7.20
2018-12-04T19:31:27.798Z,5.13
2018-12-04T19:33:55.649Z,7.20
2018-12-04T19:36:23.455Z,9.00
2018-12-04T19:38:51.226Z,7.37
2018-12-04T19:41:19.053Z,5.20
2018-12-04T19:43:46.785Z,6.27
2018-12-04T19:46:14.534Z,5.67
2018-12-04T19:48:42.317Z,3.33
2018-12-04T19:51:10.081Z,5.17
2018-12-04T19:53:37.862Z,4.20
2018-12-04T19:56:05.825Z,5.43
2018-12-04T19:58:33.782Z,6.07
2018-12-04T20:01:01.514Z,9.13
2018-12-04T20:03:29.258Z,7.90
2018-12-04T20:05:57.229Z,9.17
2018-12-04T20:08:29.661Z,8.20
2018-12-04T20:10:57.404Z,8.63
2018-12-04T20:13:25.290Z,7.20
2018-12-04T20:15:53.951Z,5.90
2018-12-04T20:18:21.992Z,6.63
2018-12-04T20:20:49.738Z,6.23
2018-12-04T20:23:17.460Z,7.40
2018-12-04T20:25:45.325Z,5.90
2018-12-04T20:28:13.032Z,5.00
2018-12-04T20:30:40.856Z,7.50
2018-12-04T20:33:08.639Z,6.27
2018-12-04T20:35:36.447Z,4.37
2018-12-04T20:38:04.232Z,6.07
2018-12-04T20:40:32.058Z,7.17
2018-12-04T20:42:59.871Z,5.13
2018-12-04T20:45:27.556Z,3.13
2018-12-04T20:47:55.426Z,4.37
2018-12-04T20:50:23.314Z,4.83
2018-12-04T20:52:51.082Z,4.07
2018-12-04T20:55:19.158Z,5.17
2018-12-04T20:57:46.962Z,5.60
2018-12-04T21:00:14.799Z,5.90
2018-12-04T21:02:42.542Z,4.77
2018-12-04T21:05:10.344Z,4.40
2018-12-04T21:07:38.090Z,4.87
2018-12-04T21:10:06.591Z,4.83
2018-12-04T21:12:34.404Z,3.50
2018-12-04T21:15:02.167Z,7.13
2018-12-04T21:17:29.936Z,6.90
2018-12-04T21:19:57.787Z,7.30
2018-12-04T21:22:25.477Z,6.93
2018-12-04T21:24:53.233Z,5.60
2018-12-04T21:27:26.728Z,6.60
2018-12-04T21:29:59.951Z,4.93
2018-12-04T21:32:33.157Z,6.73
2018-12-04T21:36:04.938Z,5.33
2018-12-04T21:38:38.289Z,5.87
2018-12-04T21:41:13.597Z,5.33
2018-12-04T21:43:47.044Z,4.20
2018-12-04T21:46:20.425Z,4.50
2018-12-04T21:48:48.309Z,5.20
2018-12-04T21:51:16.039Z,6.70
2018-12-04T21:53:43.809Z,3.37
2018-12-04T21:56:11.549Z,4.87
2018-12-04T21:58:39.348Z,5.67
2018-12-04T22:01:07.050Z,5.23
2018-12-04T22:03:34.879Z,5.43
2018-12-04T22:06:02.612Z,4.67
2018-12-04T22:08:30.344Z,5.67
2018-12-04T22:10:58.105Z,6.43
2018-12-04T22:13:25.895Z,6.00
2018-12-04T22:15:53.684Z,4.37
2018-12-04T22:18:21.454Z,3.13
2018-12-04T22:20:49.190Z,4.50
2018-12-04T22:23:16.947Z,4.50
2018-12-04T22:25:44.694Z,5.40
2018-12-04T22:28:12.428Z,6.90
2018-12-04T22:30:40.134Z,4.90
2018-12-04T22:33:07.949Z,6.00
2018-12-04T22:35:35.718Z,6.23
2018-12-04T22:38:03.493Z,5.53
2018-12-04T22:40:31.389Z,6.80
2018-12-04T22:42:59.148Z,5.17
2018-12-04T22:45:27.040Z,8.43
2018-12-04T22:47:55.260Z,5.37
2018-12-04T22:50:23.013Z,3.97
2018-12-04T22:52:50.823Z,5.07
2018-12-04T22:55:18.612Z,4.47
2018-12-04T22:57:46.402Z,4.70
2018-12-04T23:00:35.505Z,4.77
2018-12-04T23:03:03.377Z,6.47
2018-12-04T23:05:31.171Z,3.97
2018-12-04T23:07:58.901Z,4.33
2018-12-04T23:10:26.665Z,6.80
2018-12-04T23:12:54.421Z,4.17
2018-12-04T23:15:22.152Z,5.53
2018-12-04T23:17:50.140Z,6.23
2018-12-04T23:20:17.873Z,5.90
2018-12-04T23:22:45.621Z,6.23
2018-12-04T23:25:13.402Z,4.70
2018-12-04T23:27:41.144Z,4.37
2018-12-04T23:30:09.029Z,5.33
2018-12-04T23:32:36.749Z,6.03
2018-12-04T23:35:05.049Z,6.37
2018-12-04T23:37:32.789Z,4.83
2018-12-04T23:40:00.545Z,5.17
2018-12-04T23:42:28.267Z,6.60
2018-12-04T23:44:56.033Z,5.17
2018-12-04T23:47:23.808Z,5.77
2018-12-04T23:49:51.560Z,5.77
2018-12-04T23:52:19.388Z,7.60
2018-12-04T23:54:47.130Z,5.33
2018-12-04T23:57:14.914Z,4.80
2018-12-04T23:59:42.730Z,6.30
